THY6UR LTCA-LTFM
Flight info
| Callsign | THY6UR |
|---|---|
| Flight time | N/A |
| Altitude | 36000 |
| Route | BULUT UL614 GEM UW703 TIMOP UT97 LETBU/N0447F280 T97 KANQO |
| Aircraft | B738/M-SDE2E3FGHIRWXY/LB1 |
Departure
| Time | 2026-04-22 00:01 |
|---|---|
| Airport | Elazığ Airport (LTCA) |
Arrival
| Time | N/A |
|---|---|
| Airport | İstanbul Airport (LTFM) |
| Time | Latitude | Longitude | Altitude | Speed | Heading |
|---|---|---|---|---|---|
| 2026-04-21 23:40 | 38.59961 | 39.26877 | 2915 ft | 0 kts | 345° |
| 2026-04-21 23:54 | 38.59949 | 39.26881 | 2912 ft | 4 kts | 341° |
| 2026-04-21 23:54 | 38.59924 | 39.26895 | 2912 ft | 4 kts | 328° |
| 2026-04-21 23:55 | 38.59903 | 39.26916 | 2912 ft | 4 kts | 310° |
| 2026-04-21 23:55 | 38.59891 | 39.26944 | 2914 ft | 4 kts | 273° |
| 2026-04-21 23:55 | 38.59891 | 39.26958 | 2914 ft | 1 kts | 254° |
| 2026-04-21 23:57 | 38.59888 | 39.26940 | 2914 ft | 5 kts | 255° |
| 2026-04-21 23:58 | 38.59873 | 39.26869 | 2912 ft | 12 kts | 255° |
| 2026-04-21 23:58 | 38.59848 | 39.26744 | 2913 ft | 17 kts | 256° |
| 2026-04-21 23:58 | 38.59814 | 39.26571 | 2914 ft | 22 kts | 256° |
| 2026-04-21 23:58 | 38.59787 | 39.26428 | 2914 ft | 8 kts | 257° |
| 2026-04-21 23:59 | 38.59735 | 39.26396 | 2913 ft | 13 kts | 168° |
| 2026-04-21 23:59 | 38.59627 | 39.26431 | 2913 ft | 18 kts | 166° |
| 2026-04-21 23:59 | 38.59509 | 39.26468 | 2929 ft | 13 kts | 166° |
| 2026-04-21 23:59 | 38.59449 | 39.26510 | 2936 ft | 8 kts | 118° |
| 2026-04-22 00:00 | 38.59457 | 39.26580 | 2933 ft | 11 kts | 69° |
| 2026-04-22 00:00 | 38.59481 | 39.26700 | 2932 ft | 17 kts | 77° |
| 2026-04-22 00:00 | 38.59516 | 39.26883 | 2929 ft | 26 kts | 76° |
| 2026-04-22 00:00 | 38.59617 | 39.27396 | 2933 ft | 95 kts | 76° |
| 2026-04-22 00:01 | 38.59831 | 39.28493 | 2927 ft | 157 kts | 76° |
| 2026-04-22 00:01 | 38.60129 | 39.29961 | 3430 ft | 171 kts | 76° |
| 2026-04-22 00:01 | 38.60417 | 39.31422 | 4320 ft | 170 kts | 74° |
| 2026-04-22 00:01 | 38.60811 | 39.32898 | 4965 ft | 183 kts | 70° |
| 2026-04-22 00:02 | 38.61383 | 39.34364 | 5727 ft | 184 kts | 48° |
| 2026-04-22 00:02 | 38.62380 | 39.35397 | 6475 ft | 191 kts | 31° |
| 2026-04-22 00:02 | 38.63713 | 39.35936 | 6693 ft | 215 kts | 353° |
| 2026-04-22 00:02 | 38.65082 | 39.35097 | 7010 ft | 229 kts | 310° |
| 2026-04-22 00:03 | 38.65915 | 39.33304 | 7388 ft | 246 kts | 297° |
| 2026-04-22 00:03 | 38.66725 | 39.31282 | 7762 ft | 267 kts | 298° |
| 2026-04-22 00:03 | 38.67634 | 39.29181 | 8590 ft | 271 kts | 300° |
| 2026-04-22 00:03 | 38.68592 | 39.27099 | 9545 ft | 272 kts | 301° |
| 2026-04-22 00:04 | 38.69581 | 39.25014 | 10359 ft | 279 kts | 301° |
| 2026-04-22 00:04 | 38.70635 | 39.22814 | 10650 ft | 303 kts | 301° |
| 2026-04-22 00:04 | 38.71569 | 39.20283 | 10835 ft | 329 kts | 284° |
| 2026-04-22 00:04 | 38.72018 | 39.17306 | 11038 ft | 352 kts | 279° |
| 2026-04-22 00:05 | 38.72418 | 39.14134 | 11406 ft | 367 kts | 279° |
| 2026-04-22 00:05 | 38.72827 | 39.10875 | 12093 ft | 372 kts | 279° |
| 2026-04-22 00:05 | 38.73251 | 39.07590 | 12875 ft | 375 kts | 279° |
| 2026-04-22 00:05 | 38.73690 | 39.04283 | 13643 ft | 378 kts | 279° |
| 2026-04-22 00:06 | 38.74140 | 39.00948 | 14317 ft | 382 kts | 279° |
| 2026-04-22 00:06 | 38.74598 | 38.97583 | 14973 ft | 385 kts | 279° |
| 2026-04-22 00:06 | 38.75060 | 38.94188 | 15638 ft | 388 kts | 279° |
| 2026-04-22 00:06 | 38.75518 | 38.90811 | 16274 ft | 391 kts | 279° |
| 2026-04-22 00:07 | 38.76002 | 38.87371 | 16906 ft | 394 kts | 280° |
| 2026-04-22 00:07 | 38.76520 | 38.83907 | 17541 ft | 397 kts | 280° |
| 2026-04-22 00:07 | 38.77053 | 38.80412 | 18170 ft | 400 kts | 280° |
| 2026-04-22 00:07 | 38.77590 | 38.76899 | 18728 ft | 404 kts | 280° |
| 2026-04-22 00:08 | 38.78130 | 38.73356 | 19274 ft | 406 kts | 280° |
| 2026-04-22 00:08 | 38.78669 | 38.69795 | 19821 ft | 408 kts | 280° |
| 2026-04-22 00:08 | 38.79208 | 38.66213 | 20380 ft | 410 kts | 280° |
| 2026-04-22 00:08 | 38.79746 | 38.62620 | 20909 ft | 412 kts | 280° |
| 2026-04-22 00:09 | 38.80286 | 38.58996 | 21416 ft | 415 kts | 280° |
| 2026-04-22 00:09 | 38.80829 | 38.55346 | 21918 ft | 417 kts | 280° |
| 2026-04-22 00:09 | 38.81372 | 38.51684 | 22402 ft | 419 kts | 280° |
| 2026-04-22 00:09 | 38.81918 | 38.47994 | 22885 ft | 422 kts | 280° |
| 2026-04-22 00:10 | 38.82464 | 38.44293 | 23360 ft | 424 kts | 280° |
| 2026-04-22 00:10 | 38.83005 | 38.40616 | 23772 ft | 426 kts | 280° |
| 2026-04-22 00:10 | 38.83555 | 38.36871 | 24165 ft | 427 kts | 280° |
| 2026-04-22 00:10 | 38.84104 | 38.33126 | 24562 ft | 429 kts | 280° |
| 2026-04-22 00:11 | 38.84654 | 38.29365 | 24947 ft | 430 kts | 280° |
| 2026-04-22 00:11 | 38.85204 | 38.25592 | 25319 ft | 431 kts | 280° |
| 2026-04-22 00:11 | 38.85757 | 38.21792 | 25684 ft | 433 kts | 280° |
| 2026-04-22 00:11 | 38.86309 | 38.17993 | 26029 ft | 434 kts | 280° |
| 2026-04-22 00:12 | 38.86862 | 38.14175 | 26362 ft | 436 kts | 280° |
| 2026-04-22 00:12 | 38.87415 | 38.10349 | 26699 ft | 437 kts | 280° |
| 2026-04-22 00:12 | 38.87782 | 38.07801 | 26921 ft | 438 kts | 280° |
| 2026-04-22 00:12 | 38.88338 | 38.03939 | 27257 ft | 439 kts | 280° |
| 2026-04-22 00:13 | 38.88892 | 38.00083 | 27655 ft | 438 kts | 280° |
| 2026-04-22 00:13 | 38.89441 | 37.96250 | 28166 ft | 435 kts | 280° |
| 2026-04-22 00:13 | 38.89984 | 37.92444 | 28697 ft | 432 kts | 280° |
| 2026-04-22 00:13 | 38.90525 | 37.88650 | 29187 ft | 430 kts | 280° |
| 2026-04-22 00:14 | 38.91061 | 37.84880 | 29644 ft | 429 kts | 280° |
| 2026-04-22 00:14 | 38.91594 | 37.81123 | 30084 ft | 427 kts | 280° |
| 2026-04-22 00:14 | 38.92125 | 37.77370 | 30471 ft | 426 kts | 280° |
| 2026-04-22 00:14 | 38.92652 | 37.73633 | 30815 ft | 425 kts | 280° |
| 2026-04-22 00:15 | 38.93179 | 37.69893 | 31163 ft | 424 kts | 280° |
| 2026-04-22 00:15 | 38.93631 | 37.66670 | 31483 ft | 423 kts | 280° |